Terminal Aerodrome Forecast
Issued by NWS Raleigh/Durham, NC

Home | Current Version | Previous Version | Text Only | Print | Product List | Glossary On
Versions: 1 2 3 4 5 6 7 8 9 10 11 12 13 14 15 16
000
FTUS42 KRAH 181743 CCA
TAFRDU
TAF COR
KRDU 181743Z 1818/1918 23018G32KT P6SM SCT120 BKN250
     FM190600 23015G30KT 4SM -SHRA BR OVC040
     FM191000 26011KT P6SM OVC050
     FM191300 31012G22KT P6SM SCT250=

USA.gov is the U.S. government's official web portal to all federal, state and local government web resources and services.